createdAt,value
2023-04-05T00:01:28.605Z,96.80
2023-04-05T00:03:57.443Z,97.10
2023-04-05T00:06:26.769Z,97.40
2023-04-05T00:08:55.538Z,97.60
2023-04-05T00:11:22.865Z,97.90
2023-04-05T00:13:52.094Z,98.20
2023-04-05T00:16:19.512Z,98.40
2023-04-05T00:18:51.892Z,98.80
2023-04-05T00:21:21.826Z,98.90
2023-04-05T00:23:59.495Z,99.10
2023-04-05T00:26:26.605Z,99.40
2023-04-05T00:28:59.195Z,99.70
2023-04-05T00:31:25.996Z,99.90
2023-04-05T00:33:53.241Z,99.90
2023-04-05T00:36:20.641Z,99.90
2023-04-05T00:38:49.859Z,99.90
2023-04-05T00:41:16.965Z,99.90
2023-04-05T00:43:46.249Z,99.90
2023-04-05T00:46:13.188Z,99.90
2023-04-05T00:48:42.405Z,99.90
2023-04-05T00:51:11.566Z,99.90
2023-04-05T00:53:38.525Z,99.90
2023-04-05T00:56:08.363Z,99.90
2023-04-05T00:58:37.518Z,99.90
2023-04-05T01:01:07.464Z,99.90
2023-04-05T01:03:35.247Z,99.90
2023-04-05T01:06:20.847Z,99.90
2023-04-05T01:08:55.946Z,99.90
2023-04-05T01:11:23.228Z,99.90
2023-04-05T01:13:57.351Z,99.90
2023-04-05T01:16:24.148Z,99.90
2023-04-05T01:18:56.349Z,99.90
2023-04-05T01:21:37.932Z,99.90
2023-04-05T01:24:14.967Z,99.90
2023-04-05T01:26:51.009Z,99.90
2023-04-05T01:29:33.029Z,99.90
2023-04-05T01:32:20.103Z,99.90
2023-04-05T01:34:55.278Z,99.90
2023-04-05T01:37:24.437Z,99.90
2023-04-05T01:39:53.761Z,99.90
2023-04-05T01:42:25.365Z,99.90
2023-04-05T01:44:55.456Z,99.90
2023-04-05T01:47:22.376Z,99.90
2023-04-05T01:49:49.961Z,99.90
2023-04-05T01:52:17.242Z,99.90
2023-04-05T01:54:43.996Z,99.90
2023-04-05T01:57:10.746Z,99.90
2023-04-05T01:59:37.499Z,99.90
2023-04-05T02:02:05.573Z,99.90
2023-04-05T02:04:32.305Z,99.90
2023-04-05T02:06:59.980Z,99.90
2023-04-05T02:09:26.703Z,99.90
2023-04-05T02:11:53.440Z,99.90
2023-04-05T02:14:20.275Z,99.90
2023-04-05T02:16:49.436Z,99.90
2023-04-05T02:19:16.189Z,99.90
2023-04-05T02:21:42.966Z,99.90
2023-04-05T02:24:09.718Z,99.90
2023-04-05T02:26:39.331Z,99.90
2023-04-05T02:29:08.389Z,99.90
2023-04-05T02:31:35.426Z,99.90
2023-04-05T02:34:07.079Z,99.90
2023-04-05T02:36:34.319Z,99.90
2023-04-05T02:39:05.145Z,99.90
2023-04-05T02:41:31.968Z,99.90
2023-04-05T02:43:59.936Z,99.90
2023-04-05T02:46:30.490Z,99.90
2023-04-05T02:49:00.223Z,99.90
2023-04-05T02:51:35.033Z,99.90
2023-04-05T02:54:06.112Z,99.90
2023-04-05T02:56:35.514Z,99.90
2023-04-05T02:59:07.615Z,99.90
2023-04-05T03:01:36.573Z,99.90
2023-04-05T03:04:04.326Z,99.90
2023-04-05T03:06:33.752Z,99.90
2023-04-05T03:09:07.285Z,99.90
2023-04-05T03:11:34.214Z,99.90
2023-04-05T03:14:03.809Z,99.90
2023-04-05T03:16:50.541Z,99.90
2023-04-05T03:19:28.791Z,99.90
2023-04-05T03:22:05.629Z,99.90
2023-04-05T03:24:36.085Z,99.90
2023-04-05T03:27:06.165Z,99.90
2023-04-05T03:29:41.502Z,99.90
2023-04-05T03:32:14.058Z,99.90
2023-04-05T03:34:50.036Z,99.90
2023-04-05T03:37:18.281Z,99.90
2023-04-05T03:39:50.834Z,99.90
2023-04-05T03:42:18.441Z,99.90
2023-04-05T03:44:45.455Z,99.90
2023-04-05T03:47:14.603Z,99.90
2023-04-05T03:49:42.531Z,99.90
2023-04-05T03:52:10.404Z,99.90
2023-04-05T03:54:42.879Z,99.90
2023-04-05T03:57:10.305Z,99.90
2023-04-05T03:59:37.788Z,99.90
2023-04-05T04:02:07.034Z,99.90
2023-04-05T04:04:34.028Z,99.90
2023-04-05T04:07:00.767Z,99.90
2023-04-05T04:09:29.856Z,99.90
2023-04-05T04:12:04.577Z,99.90
2023-04-05T04:14:34.548Z,99.90
2023-04-05T04:17:07.883Z,99.90
2023-04-05T04:19:54.080Z,99.90
2023-04-05T04:22:45.778Z,99.90
2023-04-05T04:25:38.809Z,99.90
2023-04-05T04:28:39.135Z,99.90
2023-04-05T04:31:29.140Z,99.90
2023-04-05T04:34:03.178Z,99.90
2023-04-05T04:37:01.465Z,99.90
2023-04-05T04:39:48.704Z,99.90
2023-04-05T04:42:47.530Z,99.90
2023-04-05T04:45:20.510Z,99.90
2023-04-05T04:47:56.573Z,99.90
2023-04-05T04:50:40.029Z,99.90
2023-04-05T04:53:07.334Z,99.90
2023-04-05T04:55:36.140Z,99.90
2023-04-05T04:58:09.715Z,99.90
2023-04-05T05:00:40.907Z,99.90
2023-04-05T05:03:08.403Z,99.90
2023-04-05T05:05:35.485Z,99.90
2023-04-05T05:08:02.359Z,99.90
2023-04-05T05:10:29.223Z,99.90
2023-04-05T05:13:04.115Z,99.90
2023-04-05T05:15:30.933Z,99.90
2023-04-05T05:17:59.896Z,99.90
2023-04-05T05:20:28.440Z,99.90
2023-04-05T05:22:59.114Z,99.90
2023-04-05T05:25:26.076Z,99.90
2023-04-05T05:27:52.820Z,99.90
2023-04-05T05:30:22.598Z,99.90
2023-04-05T05:32:49.410Z,99.90
2023-04-05T05:35:16.295Z,99.90
2023-04-05T05:37:46.111Z,99.90
2023-04-05T05:40:16.196Z,99.90
2023-04-05T05:42:42.980Z,99.90
2023-04-05T05:45:10.205Z,99.90
2023-04-05T05:47:39.603Z,99.90
2023-04-05T05:50:07.030Z,99.90
2023-04-05T05:52:35.888Z,99.90
2023-04-05T05:55:02.715Z,99.90
2023-04-05T05:57:31.996Z,99.90
2023-04-05T05:59:58.734Z,99.90
2023-04-05T06:02:30.020Z,99.90
2023-04-05T06:04:59.303Z,99.90
2023-04-05T06:07:28.493Z,99.90
2023-04-05T06:09:55.301Z,99.90
2023-04-05T06:12:22.045Z,99.90
2023-04-05T06:14:48.817Z,99.90
2023-04-05T06:17:18.083Z,99.90
2023-04-05T06:19:44.786Z,99.90
2023-04-05T06:22:11.551Z,99.90
2023-04-05T06:24:38.301Z,99.90
2023-04-05T06:27:05.010Z,99.90
2023-04-05T06:29:31.704Z,99.90
2023-04-05T06:31:58.473Z,99.90
2023-04-05T06:34:27.684Z,99.90
2023-04-05T06:36:55.859Z,99.90
2023-04-05T06:39:22.614Z,99.90
2023-04-05T06:41:49.367Z,99.90
2023-04-05T06:44:16.168Z,99.90
2023-04-05T06:46:43.022Z,99.90
2023-04-05T06:49:09.834Z,99.90
2023-04-05T06:51:36.567Z,99.90
2023-04-05T06:54:03.512Z,99.90
2023-04-05T06:56:30.209Z,99.90
2023-04-05T06:58:59.401Z,99.90
2023-04-05T07:01:26.391Z,99.90
2023-04-05T07:03:53.241Z,99.90
2023-04-05T07:06:23.804Z,99.90
2023-04-05T07:08:50.631Z,99.90
2023-04-05T07:11:17.480Z,99.90
2023-04-05T07:13:44.251Z,99.90
2023-04-05T07:16:10.995Z,99.90
2023-04-05T07:18:37.773Z,99.90
2023-04-05T07:21:04.680Z,99.90
2023-04-05T07:23:31.491Z,99.90
2023-04-05T07:26:04.631Z,99.90
2023-04-05T07:28:35.479Z,99.90
2023-04-05T07:31:02.771Z,99.90
2023-04-05T07:33:29.508Z,99.90
2023-04-05T07:35:57.050Z,99.90
2023-04-05T07:38:24.244Z,99.90
2023-04-05T07:40:51.317Z,99.90
2023-04-05T07:43:18.606Z,99.90
2023-04-05T07:45:45.608Z,99.90
2023-04-05T07:48:12.518Z,99.90
2023-04-05T07:50:47.577Z,99.90
2023-04-05T07:53:17.345Z,99.90
2023-04-05T07:55:44.220Z,99.90
2023-04-05T07:58:16.121Z,99.90
2023-04-05T08:00:43.401Z,99.90
2023-04-05T08:03:10.757Z,99.90
2023-04-05T08:05:37.651Z,99.90
2023-04-05T08:08:04.584Z,99.90
2023-04-05T08:10:31.394Z,99.90
2023-04-05T08:13:03.684Z,99.90
2023-04-05T08:15:36.204Z,99.90
2023-04-05T08:18:03.282Z,99.80
2023-04-05T08:20:30.134Z,96.50
2023-04-05T08:22:57.070Z,93.20
2023-04-05T08:25:24.049Z,90.80
2023-04-05T08:27:51.044Z,88.20
2023-04-05T08:30:19.931Z,85.00
2023-04-05T08:32:46.850Z,82.60
2023-04-05T08:35:13.689Z,80.40
2023-04-05T08:37:42.935Z,77.40
2023-04-05T08:40:12.610Z,76.40
2023-04-05T08:43:02.505Z,74.80
2023-04-05T08:45:30.940Z,73.70
2023-04-05T08:47:57.814Z,70.70
2023-04-05T08:50:24.985Z,71.40
2023-04-05T08:52:54.251Z,71.20
2023-04-05T08:55:23.612Z,69.50
2023-04-05T08:57:54.124Z,68.10
2023-04-05T09:00:21.539Z,68.00
2023-04-05T09:02:54.550Z,67.90
2023-04-05T09:05:23.963Z,65.80
2023-04-05T09:07:51.914Z,65.70
2023-04-05T09:10:22.569Z,67.30
2023-04-05T09:12:52.611Z,69.30
2023-04-05T09:15:24.268Z,67.70
2023-04-05T09:17:52.361Z,65.60
2023-04-05T09:20:19.400Z,64.80
2023-04-05T09:22:47.313Z,64.70
2023-04-05T09:25:40.484Z,62.70
2023-04-05T09:28:08.310Z,61.60
2023-04-05T09:30:37.151Z,61.30
2023-04-05T09:33:10.306Z,60.60
2023-04-05T09:35:39.718Z,63.10
2023-04-05T09:38:06.822Z,66.00
2023-04-05T09:40:51.206Z,67.60
2023-04-05T09:43:40.839Z,67.50
2023-04-05T09:46:28.159Z,65.30
2023-04-05T09:48:55.234Z,63.90
2023-04-05T09:51:33.726Z,61.20
2023-04-05T09:54:09.883Z,60.60
2023-04-05T09:56:38.423Z,60.00
2023-04-05T09:59:09.599Z,61.90
2023-04-05T10:01:41.371Z,64.20
2023-04-05T10:04:09.014Z,65.30
2023-04-05T10:06:37.339Z,63.20
2023-04-05T10:09:07.218Z,64.40
2023-04-05T10:11:34.803Z,63.10
2023-04-05T10:14:04.102Z,66.40
2023-04-05T10:16:34.447Z,69.00
2023-04-05T10:19:09.152Z,69.70
2023-04-05T10:21:43.626Z,67.70
2023-04-05T10:24:23.526Z,66.50
2023-04-05T10:27:02.480Z,63.70
2023-04-05T10:29:37.988Z,63.70
2023-04-05T10:32:16.611Z,64.80
2023-04-05T10:34:54.630Z,66.70
2023-04-05T10:37:50.485Z,67.70
2023-04-05T10:40:27.536Z,69.70
2023-04-05T10:42:54.520Z,69.30
2023-04-05T10:45:23.062Z,71.30
2023-04-05T10:48:14.054Z,72.60
2023-04-05T10:50:42.467Z,74.30
2023-04-05T10:53:09.711Z,75.20
2023-04-05T10:55:41.970Z,77.00
2023-04-05T10:58:09.919Z,76.90
2023-04-05T11:00:36.948Z,78.80
2023-04-05T11:03:03.857Z,79.70
2023-04-05T11:05:37.637Z,79.70
2023-04-05T11:08:08.289Z,79.80
2023-04-05T11:10:38.890Z,80.20
2023-04-05T11:13:06.864Z,81.90
2023-04-05T11:15:34.474Z,82.00
2023-04-05T11:18:30.627Z,81.80
2023-04-05T11:21:07.527Z,82.80
2023-04-05T11:23:54.206Z,83.60
2023-04-05T11:26:23.477Z,83.70
2023-04-05T11:28:57.258Z,83.60
2023-04-05T11:31:27.037Z,84.60
2023-04-05T11:33:56.724Z,85.10
2023-04-05T11:36:33.763Z,84.80
2023-04-05T11:39:19.170Z,84.70
2023-04-05T11:41:47.173Z,84.90
2023-04-05T11:44:17.252Z,85.20
2023-04-05T11:46:45.912Z,85.30
2023-04-05T11:49:13.398Z,85.10
2023-04-05T11:51:43.649Z,84.00
2023-04-05T11:54:12.917Z,85.00
2023-04-05T11:56:39.614Z,84.70
2023-04-05T11:59:13.489Z,84.10
2023-04-05T12:01:44.202Z,83.60
2023-04-05T12:04:13.865Z,83.60
2023-04-05T12:06:42.950Z,83.70
2023-04-05T12:09:11.781Z,82.90
2023-04-05T12:11:41.223Z,83.60
2023-04-05T12:14:07.994Z,83.90
2023-04-05T12:16:34.924Z,82.80
2023-04-05T12:19:01.740Z,84.30
2023-04-05T12:21:31.125Z,84.70
2023-04-05T12:24:00.474Z,85.80
2023-04-05T12:26:28.648Z,86.60
2023-04-05T12:28:59.107Z,87.30
2023-04-05T12:31:36.195Z,86.60
2023-04-05T12:34:03.084Z,85.60
2023-04-05T12:36:32.636Z,87.50
2023-04-05T12:38:59.708Z,88.30
2023-04-05T12:41:36.585Z,87.50
2023-04-05T12:44:11.375Z,88.60
2023-04-05T12:46:44.292Z,88.00
2023-04-05T12:49:20.215Z,88.80
2023-04-05T12:51:47.479Z,90.10
2023-04-05T12:54:14.713Z,91.30
2023-04-05T12:56:41.751Z,91.00
2023-04-05T12:59:08.743Z,91.20
2023-04-05T13:01:35.571Z,92.40
2023-04-05T13:04:15.517Z,92.00
2023-04-05T13:06:43.978Z,92.40
2023-04-05T13:09:13.097Z,92.70
2023-04-05T13:11:39.865Z,91.40
2023-04-05T13:14:07.144Z,91.10
2023-04-05T13:16:33.995Z,91.30
2023-04-05T13:19:03.123Z,90.30
2023-04-05T13:21:32.822Z,88.50
2023-04-05T13:24:02.538Z,87.60
2023-04-05T13:26:29.565Z,86.40
2023-04-05T13:28:56.377Z,84.20
2023-04-05T13:31:23.286Z,83.60
2023-04-05T13:33:52.809Z,84.50
2023-04-05T13:36:19.639Z,83.20
2023-04-05T13:38:46.479Z,82.70
2023-04-05T13:41:15.995Z,80.70
2023-04-05T13:43:47.353Z,79.10
2023-04-05T13:46:14.220Z,80.00
2023-04-05T13:48:41.235Z,82.00
2023-04-05T13:51:08.176Z,82.50
2023-04-05T13:53:35.190Z,80.40
2023-04-05T13:56:04.242Z,80.80
2023-04-05T13:58:33.240Z,81.50
2023-04-05T14:01:00.231Z,82.10
2023-04-05T14:03:27.215Z,80.90
2023-04-05T14:05:56.763Z,81.60
2023-04-05T14:08:23.711Z,83.20
2023-04-05T14:10:51.452Z,83.30
2023-04-05T14:13:18.383Z,83.20
2023-04-05T14:15:45.335Z,83.10
2023-04-05T14:18:12.380Z,82.60
2023-04-05T14:20:39.622Z,82.40
2023-04-05T14:23:09.555Z,81.50
2023-04-05T14:25:36.448Z,82.60
2023-04-05T14:28:03.430Z,82.70
2023-04-05T14:30:30.781Z,81.70
2023-04-05T14:33:00.148Z,81.60
2023-04-05T14:35:27.228Z,81.80
2023-04-05T14:37:54.101Z,82.20
2023-04-05T14:40:21.004Z,82.40
2023-04-05T14:42:50.145Z,81.30
2023-04-05T14:45:18.569Z,78.60
2023-04-05T14:47:45.564Z,82.00
2023-04-05T14:50:12.548Z,81.60
2023-04-05T14:52:39.978Z,82.60
2023-04-05T14:55:07.242Z,83.50
2023-04-05T14:57:34.251Z,83.50
2023-04-05T15:00:01.294Z,83.00
2023-04-05T15:02:31.000Z,84.10
2023-04-05T15:05:00.513Z,85.10
2023-04-05T15:07:28.170Z,85.30
2023-04-05T15:09:58.428Z,85.00
2023-04-05T15:12:26.288Z,84.60
2023-04-05T15:14:58.014Z,84.60
2023-04-05T15:17:25.596Z,84.50
2023-04-05T15:19:52.476Z,84.20
2023-04-05T15:22:20.822Z,83.60
2023-04-05T15:24:50.767Z,84.60
2023-04-05T15:27:17.716Z,85.30
2023-04-05T15:29:47.002Z,83.80
2023-04-05T15:32:13.909Z,84.90
2023-04-05T15:34:46.100Z,84.70
2023-04-05T15:37:17.719Z,85.20
2023-04-05T15:39:44.631Z,86.20
2023-04-05T15:42:11.512Z,86.60
2023-04-05T15:44:43.006Z,85.80
2023-04-05T15:47:10.958Z,87.00
2023-04-05T15:49:37.800Z,85.70
2023-04-05T15:52:05.211Z,85.80
2023-04-05T15:54:36.477Z,84.70
2023-04-05T15:57:05.984Z,84.90
2023-04-05T15:59:32.828Z,84.40
2023-04-05T16:01:59.775Z,83.70
2023-04-05T16:04:27.970Z,84.70
2023-04-05T16:06:55.056Z,85.40
2023-04-05T16:09:22.220Z,84.70
2023-04-05T16:11:49.630Z,85.10
2023-04-05T16:14:16.539Z,83.60
2023-04-05T16:16:53.801Z,84.20
2023-04-05T16:19:21.339Z,84.80
2023-04-05T16:21:48.277Z,84.00
2023-04-05T16:24:15.146Z,84.30
2023-04-05T16:26:41.975Z,84.20
2023-04-05T16:29:08.902Z,84.60
2023-04-05T16:31:36.932Z,85.60
2023-04-05T16:34:03.862Z,85.90
2023-04-05T16:36:32.922Z,85.80
2023-04-05T16:38:59.848Z,85.50
2023-04-05T16:41:26.787Z,85.30
2023-04-05T16:43:53.600Z,85.60
2023-04-05T16:46:20.534Z,86.90
2023-04-05T16:48:49.694Z,87.00
2023-04-05T16:51:16.937Z,87.90
2023-04-05T16:53:43.951Z,87.80
2023-04-05T16:56:10.734Z,87.80
2023-04-05T16:58:37.655Z,88.30
2023-04-05T17:01:04.620Z,88.90
2023-04-05T17:03:31.534Z,90.00
2023-04-05T17:05:58.371Z,90.50
2023-04-05T17:08:25.115Z,90.90
2023-04-05T17:10:52.054Z,90.80
2023-04-05T17:13:19.034Z,91.00
2023-04-05T17:15:47.316Z,90.90
2023-04-05T17:18:14.189Z,91.60
2023-04-05T17:20:41.127Z,91.50
2023-04-05T17:23:08.155Z,91.70
2023-04-05T17:25:37.352Z,91.60
2023-04-05T17:28:04.371Z,91.70
2023-04-05T17:30:31.867Z,91.80
2023-04-05T17:32:58.764Z,91.70
2023-04-05T17:35:31.103Z,91.80
2023-04-05T17:37:58.146Z,92.10
2023-04-05T17:40:24.959Z,91.80
2023-04-05T17:42:51.758Z,92.10
2023-04-05T17:45:18.634Z,92.10
2023-04-05T17:47:45.813Z,92.20
2023-04-05T17:50:12.759Z,92.70
2023-04-05T17:52:39.706Z,92.70
2023-04-05T17:55:07.030Z,92.90
2023-04-05T17:57:33.846Z,93.20
2023-04-05T18:00:05.445Z,93.20
2023-04-05T18:02:36.870Z,93.10
2023-04-05T18:05:06.515Z,93.00
2023-04-05T18:07:37.110Z,93.20
2023-04-05T18:10:04.871Z,93.40
2023-04-05T18:12:32.653Z,93.20
2023-04-05T18:14:59.941Z,93.80
2023-04-05T18:17:27.993Z,94.00
2023-04-05T18:19:57.354Z,93.80
2023-04-05T18:22:24.160Z,94.10
2023-04-05T18:24:51.054Z,94.40
2023-04-05T18:27:20.225Z,94.50
2023-04-05T18:29:47.657Z,94.70
2023-04-05T18:32:14.703Z,94.50
2023-04-05T18:34:42.090Z,94.70
2023-04-05T18:37:08.937Z,94.70
2023-04-05T18:39:38.066Z,94.50
2023-04-05T18:42:05.141Z,94.70
2023-04-05T18:44:32.013Z,94.60
2023-04-05T18:46:58.971Z,94.60
2023-04-05T18:49:25.888Z,94.80
2023-04-05T18:51:56.039Z,94.80
2023-04-05T18:54:25.428Z,95.10
2023-04-05T18:56:56.588Z,94.90
2023-04-05T18:59:23.523Z,94.60
2023-04-05T19:01:50.717Z,94.90
2023-04-05T19:04:17.832Z,94.90
2023-04-05T19:06:44.870Z,95.10
2023-04-05T19:09:12.226Z,94.90
2023-04-05T19:11:39.231Z,94.80
2023-04-05T19:14:08.408Z,94.80
2023-04-05T19:16:35.748Z,94.90
2023-04-05T19:19:03.749Z,95.20
2023-04-05T19:21:31.323Z,94.90
2023-04-05T19:23:58.746Z,94.80
2023-04-05T19:26:25.986Z,95.00
2023-04-05T19:28:52.912Z,95.10
2023-04-05T19:31:19.964Z,95.00
2023-04-05T19:33:47.259Z,95.30
2023-04-05T19:36:14.345Z,95.40
2023-04-05T19:38:41.283Z,95.40
2023-04-05T19:41:08.247Z,96.00
2023-04-05T19:43:40.855Z,95.80
2023-04-05T19:46:10.201Z,96.10
2023-04-05T19:48:40.773Z,96.30
2023-04-05T19:51:11.262Z,96.40
2023-04-05T19:53:39.880Z,96.10
2023-04-05T19:56:16.456Z,96.40
2023-04-05T19:58:43.367Z,96.60
2023-04-05T20:01:10.312Z,96.80
2023-04-05T20:03:45.592Z,97.00
2023-04-05T20:06:13.399Z,97.20
2023-04-05T20:08:44.255Z,97.00
2023-04-05T20:11:17.987Z,97.20
2023-04-05T20:13:49.137Z,97.10
2023-04-05T20:16:19.054Z,97.30
2023-04-05T20:18:46.984Z,97.40
2023-04-05T20:21:14.906Z,97.60
2023-04-05T20:23:42.994Z,97.70
2023-04-05T20:26:12.509Z,97.50
2023-04-05T20:28:43.239Z,97.90
2023-04-05T20:31:19.204Z,97.90
2023-04-05T20:33:46.988Z,98.00
2023-04-05T20:36:16.378Z,98.30
2023-04-05T20:38:44.503Z,98.30
2023-04-05T20:41:16.338Z,98.80
2023-04-05T20:43:43.232Z,99.00
2023-04-05T20:46:13.039Z,99.00
2023-04-05T20:48:40.076Z,99.20
2023-04-05T20:51:09.805Z,99.20
2023-04-05T20:53:39.241Z,99.40
2023-04-05T20:56:06.633Z,99.60
2023-04-05T20:58:33.978Z,99.70
2023-04-05T21:01:04.139Z,99.90
2023-04-05T21:03:34.858Z,99.90
2023-04-05T21:06:02.152Z,99.90
2023-04-05T21:08:29.845Z,99.90
2023-04-05T21:10:59.304Z,99.90
2023-04-05T21:13:26.190Z,99.90
2023-04-05T21:15:56.727Z,99.90
2023-04-05T21:18:24.459Z,99.90
2023-04-05T21:20:52.422Z,99.90
2023-04-05T21:23:21.181Z,99.90
2023-04-05T21:25:48.050Z,99.90
2023-04-05T21:28:16.154Z,99.90
2023-04-05T21:30:43.744Z,99.90
2023-04-05T21:33:11.399Z,99.90
2023-04-05T21:35:38.657Z,99.90
2023-04-05T21:38:06.242Z,99.90
2023-04-05T21:40:33.159Z,99.90
2023-04-05T21:43:00.149Z,99.90
2023-04-05T21:45:27.273Z,99.90
2023-04-05T21:47:56.328Z,99.90
2023-04-05T21:50:25.608Z,99.90
2023-04-05T21:52:52.397Z,99.90
2023-04-05T21:55:19.256Z,99.90
2023-04-05T21:57:46.136Z,99.90
2023-04-05T22:00:12.957Z,99.90
2023-04-05T22:02:40.219Z,99.90
2023-04-05T22:05:09.911Z,99.90
2023-04-05T22:07:36.957Z,99.90
2023-04-05T22:10:04.009Z,99.90
2023-04-05T22:12:31.017Z,99.90
2023-04-05T22:14:57.822Z,99.90
2023-04-05T22:17:24.806Z,99.90
2023-04-05T22:19:54.156Z,99.90
2023-04-05T22:22:23.349Z,99.90
2023-04-05T22:24:52.918Z,99.90
2023-04-05T22:27:22.128Z,99.90
2023-04-05T22:29:49.867Z,99.90
2023-04-05T22:32:16.979Z,99.90
2023-04-05T22:34:44.096Z,99.90
2023-04-05T22:37:11.120Z,99.90
2023-04-05T22:39:37.935Z,99.90
2023-04-05T22:42:04.764Z,99.90
2023-04-05T22:44:31.577Z,99.90
2023-04-05T22:47:01.016Z,99.90
2023-04-05T22:49:27.904Z,99.90
2023-04-05T22:51:54.772Z,99.90
2023-04-05T22:54:24.609Z,99.90
2023-04-05T22:56:51.436Z,99.90
2023-04-05T22:59:22.658Z,99.90
2023-04-05T23:01:52.089Z,99.90
2023-04-05T23:04:19.083Z,99.90
2023-04-05T23:06:46.204Z,99.90
2023-04-05T23:09:14.615Z,99.90
2023-04-05T23:11:42.580Z,99.90
2023-04-05T23:14:09.617Z,99.90
2023-04-05T23:16:36.725Z,99.90
2023-04-05T23:19:04.294Z,99.90
2023-04-05T23:21:31.803Z,99.90
2023-04-05T23:24:00.444Z,99.90
2023-04-05T23:26:27.396Z,99.90
2023-04-05T23:28:56.505Z,99.90
2023-04-05T23:31:23.353Z,99.90
2023-04-05T23:33:53.815Z,99.90
2023-04-05T23:36:21.912Z,99.90
2023-04-05T23:38:48.621Z,99.90
2023-04-05T23:41:18.244Z,99.90
2023-04-05T23:43:47.352Z,99.90
2023-04-05T23:46:14.208Z,99.90
2023-04-05T23:48:41.335Z,99.90
2023-04-05T23:51:08.382Z,99.90
2023-04-05T23:53:35.354Z,99.90
2023-04-05T23:56:04.628Z,99.90
2023-04-05T23:58:31.436Z,99.90
